createdAt,value
2022-12-12T00:02:10.858Z,32.37
2022-12-12T00:04:37.518Z,30.47
2022-12-12T00:07:04.315Z,30.73
2022-12-12T00:09:30.716Z,31.13
2022-12-12T00:11:57.201Z,30.27
2022-12-12T00:14:23.621Z,31.43
2022-12-12T00:16:50.062Z,29.37
2022-12-12T00:19:16.786Z,31.73
2022-12-12T00:21:43.240Z,31.70
2022-12-12T00:24:09.755Z,30.73
2022-12-12T00:26:36.271Z,29.53
2022-12-12T00:29:04.304Z,35.13
2022-12-12T00:31:31.486Z,33.60
2022-12-12T00:33:58.546Z,34.93
2022-12-12T00:36:28.316Z,32.70
2022-12-12T00:38:54.860Z,33.83
2022-12-12T00:41:22.115Z,33.70
2022-12-12T00:43:48.925Z,32.37
2022-12-12T00:46:17.979Z,33.07
2022-12-12T00:48:45.201Z,32.73
2022-12-12T00:51:16.913Z,33.60
2022-12-12T00:53:43.431Z,33.33
2022-12-12T00:56:09.875Z,33.37
2022-12-12T00:58:36.466Z,33.43
2022-12-12T01:01:09.700Z,33.73
2022-12-12T01:03:38.099Z,33.50
2022-12-12T01:06:04.843Z,33.80
2022-12-12T01:08:31.350Z,33.87
2022-12-12T01:10:58.064Z,34.03
2022-12-12T01:13:24.945Z,33.13
2022-12-12T01:15:52.061Z,31.57
2022-12-12T01:18:19.569Z,30.93
2022-12-12T01:20:46.509Z,29.50
2022-12-12T01:23:13.658Z,29.43
2022-12-12T01:25:40.185Z,28.83
2022-12-12T01:28:07.700Z,29.30
2022-12-12T01:30:34.470Z,27.27
2022-12-12T01:33:00.903Z,29.23
2022-12-12T01:35:27.844Z,30.30
2022-12-12T01:37:54.363Z,28.43
2022-12-12T01:40:24.092Z,27.33
2022-12-12T01:42:51.592Z,25.43
2022-12-12T01:46:12.499Z,25.77
2022-12-12T01:48:47.018Z,26.53
2022-12-12T01:51:19.063Z,24.67
2022-12-12T01:53:47.528Z,25.67
2022-12-12T01:56:16.944Z,25.40
2022-12-12T01:58:48.803Z,25.67
2022-12-12T02:01:16.446Z,24.53
2022-12-12T02:03:44.135Z,23.67
2022-12-12T02:06:15.039Z,22.53
2022-12-12T02:08:43.059Z,23.53
2022-12-12T02:11:09.599Z,24.57
2022-12-12T02:13:36.496Z,23.77
2022-12-12T02:16:14.799Z,24.07
2022-12-12T02:19:09.171Z,23.83
2022-12-12T02:21:44.057Z,23.60
2022-12-12T02:24:25.912Z,21.43
2022-12-12T02:27:20.242Z,23.37
2022-12-12T02:29:50.370Z,21.70
2022-12-12T02:32:41.313Z,23.53
2022-12-12T02:35:32.342Z,22.73
2022-12-12T02:38:15.162Z,22.17
2022-12-12T02:40:51.482Z,22.13
2022-12-12T02:43:55.615Z,23.07
2022-12-12T02:46:55.555Z,22.70
2022-12-12T02:49:39.515Z,22.13
2022-12-12T02:52:09.279Z,21.37
2022-12-12T02:54:36.515Z,21.97
2022-12-12T02:57:04.510Z,21.07
2022-12-12T02:59:42.174Z,20.23
2022-12-12T03:02:36.225Z,23.43
2022-12-12T03:05:36.495Z,23.00
2022-12-12T03:08:06.623Z,21.13
2022-12-12T03:10:35.880Z,23.27
2022-12-12T03:13:28.777Z,22.87
2022-12-12T03:16:20.284Z,21.27
2022-12-12T03:19:09.024Z,23.10
2022-12-12T03:21:59.091Z,22.73
2022-12-12T03:24:31.556Z,20.30
2022-12-12T03:27:20.425Z,22.80
2022-12-12T03:29:54.402Z,20.90
2022-12-12T03:32:31.749Z,20.90
2022-12-12T03:35:14.925Z,20.90
2022-12-12T03:37:49.197Z,20.43
2022-12-12T03:40:48.412Z,21.00
2022-12-12T03:43:21.750Z,20.43
2022-12-12T03:45:55.471Z,21.13
2022-12-12T03:48:30.831Z,21.03
2022-12-12T03:51:08.094Z,19.37
2022-12-12T03:53:44.422Z,20.00
2022-12-12T03:56:41.975Z,19.83
2022-12-12T03:59:38.508Z,21.33
2022-12-12T04:02:15.896Z,20.30
2022-12-12T04:05:00.861Z,20.63
2022-12-12T04:07:39.848Z,19.67
2022-12-12T04:10:26.424Z,20.83
2022-12-12T04:13:06.797Z,19.33
2022-12-12T04:16:01.037Z,20.33
2022-12-12T04:18:27.407Z,20.53
2022-12-12T04:21:31.440Z,19.80
2022-12-12T04:24:13.200Z,20.23
2022-12-12T04:26:51.120Z,21.20
2022-12-12T04:29:44.869Z,20.47
2022-12-12T04:32:19.952Z,19.47
2022-12-12T04:34:58.504Z,20.33
2022-12-12T04:37:31.624Z,19.93
2022-12-12T04:40:01.362Z,19.90
2022-12-12T04:42:32.502Z,20.10
2022-12-12T04:45:21.546Z,20.57
2022-12-12T04:47:52.488Z,19.87
2022-12-12T04:50:22.219Z,18.43
2022-12-12T04:52:52.697Z,19.63
2022-12-12T04:55:25.475Z,19.70
2022-12-12T04:57:56.650Z,17.10
2022-12-12T05:00:26.544Z,18.30
2022-12-12T05:03:05.979Z,17.87
2022-12-12T05:05:40.552Z,17.70
2022-12-12T05:08:39.546Z,16.50
2022-12-12T05:11:07.128Z,16.30
2022-12-12T05:13:36.688Z,17.43
2022-12-12T05:16:14.092Z,18.67
2022-12-12T05:18:40.828Z,17.67
2022-12-12T05:21:07.245Z,17.27
2022-12-12T05:23:34.884Z,17.80
2022-12-12T05:26:07.705Z,17.93
2022-12-12T05:28:34.517Z,18.10
2022-12-12T05:31:01.000Z,17.77
2022-12-12T05:33:27.841Z,18.83
2022-12-12T05:35:54.375Z,20.93
2022-12-12T05:38:20.966Z,18.50
2022-12-12T05:40:47.380Z,17.77
2022-12-12T05:43:14.067Z,17.30
2022-12-12T05:45:40.616Z,16.67
2022-12-12T05:48:07.047Z,17.17
2022-12-12T05:50:33.592Z,17.37
2022-12-12T05:52:59.994Z,16.83
2022-12-12T05:55:27.147Z,17.07
2022-12-12T05:57:53.695Z,16.57
2022-12-12T06:00:20.760Z,16.67
2022-12-12T06:02:47.348Z,16.60
2022-12-12T06:05:15.028Z,17.97
2022-12-12T06:07:43.528Z,17.33
2022-12-12T06:10:10.121Z,17.17
2022-12-12T06:12:36.750Z,18.73
2022-12-12T06:15:03.450Z,19.33
2022-12-12T06:17:33.379Z,16.90
2022-12-12T06:20:01.418Z,18.03
2022-12-12T06:22:28.000Z,18.20
2022-12-12T06:24:54.467Z,16.17
2022-12-12T06:27:21.032Z,17.43
2022-12-12T06:29:48.138Z,17.30
2022-12-12T06:32:14.921Z,16.60
2022-12-12T06:34:41.697Z,17.80
2022-12-12T06:37:12.909Z,17.13
2022-12-12T06:39:43.449Z,22.60
2022-12-12T06:42:09.915Z,23.57
2022-12-12T06:44:36.346Z,20.53
2022-12-12T06:47:02.772Z,19.33
2022-12-12T06:49:29.203Z,17.97
2022-12-12T06:51:55.677Z,17.40
2022-12-12T06:54:22.271Z,16.27
2022-12-12T06:56:49.394Z,16.87
2022-12-12T06:59:17.325Z,15.63
2022-12-12T07:01:44.157Z,18.43
2022-12-12T07:04:12.092Z,16.97
2022-12-12T07:06:38.523Z,17.70
2022-12-12T07:09:05.502Z,17.53
2022-12-12T07:11:32.347Z,17.80
2022-12-12T07:14:01.382Z,17.33
2022-12-12T07:16:28.018Z,16.57
2022-12-12T07:18:54.512Z,17.17
2022-12-12T07:21:21.269Z,17.97
2022-12-12T07:23:47.820Z,18.00
2022-12-12T07:26:17.607Z,19.00
2022-12-12T07:28:44.532Z,18.97
2022-12-12T07:31:14.228Z,20.40
2022-12-12T07:33:43.986Z,21.07
2022-12-12T07:36:13.973Z,23.13
2022-12-12T07:38:41.136Z,22.30
2022-12-12T07:41:10.320Z,21.73
2022-12-12T07:43:43.821Z,21.20
2022-12-12T07:46:14.482Z,23.47
2022-12-12T07:48:41.297Z,23.30
2022-12-12T07:51:07.882Z,23.30
2022-12-12T07:53:34.352Z,25.97
2022-12-12T07:56:00.771Z,25.57
2022-12-12T07:58:27.254Z,25.37
2022-12-12T08:00:53.815Z,24.47
2022-12-12T08:03:20.297Z,23.97
2022-12-12T08:05:47.092Z,23.20
2022-12-12T08:08:14.085Z,21.73
2022-12-12T08:10:40.774Z,21.10
2022-12-12T08:13:07.994Z,21.43
2022-12-12T08:15:34.730Z,20.13
2022-12-12T08:18:01.644Z,19.13
2022-12-12T08:20:28.075Z,19.17
2022-12-12T08:22:54.568Z,19.27
2022-12-12T08:25:21.428Z,19.40
2022-12-12T08:27:48.154Z,18.70
2022-12-12T08:30:14.992Z,17.73
2022-12-12T08:32:41.439Z,17.70
2022-12-12T08:35:08.535Z,18.77
2022-12-12T08:37:34.939Z,18.73
2022-12-12T08:40:02.031Z,18.40
2022-12-12T08:42:28.949Z,17.27
2022-12-12T08:44:55.404Z,15.80
2022-12-12T08:47:21.922Z,17.07
2022-12-12T08:49:48.602Z,17.50
2022-12-12T08:52:15.249Z,18.00
2022-12-12T08:54:42.680Z,16.83
2022-12-12T08:57:09.231Z,17.70
2022-12-12T08:59:35.738Z,18.23
2022-12-12T09:02:02.348Z,17.33
2022-12-12T09:04:28.912Z,18.90
2022-12-12T09:06:55.349Z,17.50
2022-12-12T09:09:22.161Z,16.17
2022-12-12T09:11:48.675Z,16.57
2022-12-12T09:14:15.170Z,16.67
2022-12-12T09:16:41.743Z,17.17
2022-12-12T09:19:08.255Z,16.33
2022-12-12T09:21:34.811Z,16.77
2022-12-12T09:24:01.906Z,15.93
2022-12-12T09:26:28.389Z,16.37
2022-12-12T09:28:54.824Z,17.27
2022-12-12T09:31:21.613Z,15.73
2022-12-12T09:33:49.015Z,15.40
2022-12-12T09:36:16.337Z,16.37
2022-12-12T09:38:43.569Z,16.27
2022-12-12T09:41:09.923Z,15.43
2022-12-12T09:43:47.620Z,15.13
2022-12-12T09:46:34.394Z,14.50
2022-12-12T09:49:37.185Z,14.93
2022-12-12T09:52:13.959Z,15.30
2022-12-12T09:54:40.433Z,15.53
2022-12-12T09:57:36.227Z,14.80
2022-12-12T10:00:09.769Z,14.00
2022-12-12T10:03:05.889Z,15.30
2022-12-12T10:05:51.199Z,15.40
2022-12-12T10:08:53.073Z,15.70
2022-12-12T10:11:47.738Z,14.93
2022-12-12T10:14:16.523Z,15.07
2022-12-12T10:16:44.304Z,16.17
2022-12-12T10:19:21.611Z,16.87
2022-12-12T10:21:51.354Z,15.80
2022-12-12T10:24:51.353Z,15.30
2022-12-12T10:27:17.918Z,15.90
2022-12-12T10:29:48.635Z,14.47
2022-12-12T10:32:27.554Z,15.27
2022-12-12T10:35:27.166Z,15.47
2022-12-12T10:38:14.491Z,15.87
2022-12-12T10:41:03.668Z,14.60
2022-12-12T10:44:12.040Z,15.40
2022-12-12T10:46:51.997Z,14.20
2022-12-12T10:49:22.805Z,15.47
2022-12-12T10:51:50.435Z,16.00
2022-12-12T10:54:21.530Z,14.90
2022-12-12T10:57:06.832Z,14.70
2022-12-12T10:59:41.376Z,15.47
2022-12-12T11:02:37.214Z,17.00
2022-12-12T11:05:26.766Z,17.40
2022-12-12T11:08:03.441Z,16.03
2022-12-12T11:10:36.115Z,16.17
2022-12-12T11:13:14.921Z,15.67
2022-12-12T11:15:50.453Z,16.77
2022-12-12T11:18:21.776Z,14.73
2022-12-12T11:21:12.888Z,14.67
2022-12-12T11:23:51.976Z,15.30
2022-12-12T11:26:20.417Z,14.87
2022-12-12T11:28:55.247Z,15.80
2022-12-12T11:31:24.300Z,15.20
2022-12-12T11:34:00.802Z,15.60
2022-12-12T11:36:33.376Z,14.83
2022-12-12T11:39:03.367Z,14.87
2022-12-12T11:41:52.947Z,14.83
2022-12-12T11:44:25.737Z,15.20
2022-12-12T11:46:52.421Z,13.77
2022-12-12T11:49:20.409Z,13.63
2022-12-12T11:51:48.130Z,13.83
2022-12-12T11:54:26.849Z,15.40
2022-12-12T11:56:59.006Z,15.27
2022-12-12T12:00:03.105Z,14.80
2022-12-12T12:03:01.788Z,14.20
2022-12-12T12:05:43.116Z,15.50
2022-12-12T12:08:29.285Z,15.40
2022-12-12T12:11:05.515Z,13.97
2022-12-12T12:14:12.351Z,14.47
2022-12-12T12:17:28.980Z,14.17
2022-12-12T12:20:21.776Z,14.33
2022-12-12T12:22:59.575Z,13.37
2022-12-12T12:25:28.961Z,14.57
2022-12-12T12:28:23.358Z,14.23
2022-12-12T12:31:23.900Z,13.70
2022-12-12T12:33:56.472Z,13.10
2022-12-12T12:36:46.252Z,13.33
2022-12-12T12:39:39.238Z,13.20
2022-12-12T12:42:56.811Z,13.17
2022-12-12T12:45:32.219Z,13.60
2022-12-12T12:48:08.828Z,13.27
2022-12-12T12:50:44.475Z,12.07
2022-12-12T12:53:21.189Z,13.00
2022-12-12T12:55:53.008Z,12.20
2022-12-12T12:58:25.558Z,12.33
2022-12-12T13:01:03.322Z,13.37
2022-12-12T13:03:39.819Z,13.37
2022-12-12T13:06:18.563Z,12.80
2022-12-12T13:08:57.428Z,12.83
2022-12-12T13:11:33.972Z,14.23
2022-12-12T13:14:17.378Z,14.77
2022-12-12T13:16:44.704Z,15.33
2022-12-12T13:19:16.778Z,15.20
2022-12-12T13:22:07.821Z,14.70
2022-12-12T13:24:54.983Z,13.80
2022-12-12T13:27:31.584Z,13.57
2022-12-12T13:30:04.336Z,15.63
2022-12-12T13:32:55.412Z,14.03
2022-12-12T13:35:30.246Z,13.23
2022-12-12T13:37:57.416Z,13.50
2022-12-12T13:40:30.484Z,13.83
2022-12-12T13:43:09.619Z,14.20
2022-12-12T13:45:45.334Z,13.43
2022-12-12T13:48:27.128Z,14.03
2022-12-12T13:51:34.599Z,13.13
2022-12-12T13:54:12.207Z,13.87
2022-12-12T13:56:47.536Z,13.97
2022-12-12T13:59:23.235Z,14.67
2022-12-12T14:01:50.653Z,14.40
2022-12-12T14:04:39.572Z,13.97
2022-12-12T14:07:19.891Z,14.97
2022-12-12T14:09:50.191Z,15.17
2022-12-12T14:12:31.142Z,15.20
2022-12-12T14:15:18.472Z,14.73
2022-12-12T14:17:54.609Z,14.73
2022-12-12T14:20:30.161Z,16.43
2022-12-12T14:22:59.421Z,18.53
2022-12-12T14:25:44.019Z,19.40
2022-12-12T14:28:27.114Z,18.03
2022-12-12T14:31:16.596Z,17.10
2022-12-12T14:34:03.074Z,15.83
2022-12-12T14:37:11.525Z,16.23
2022-12-12T14:39:51.571Z,18.10
2022-12-12T14:43:15.573Z,18.93
2022-12-12T14:45:38.564Z,17.47
2022-12-12T14:48:17.585Z,15.90
2022-12-12T14:51:28.916Z,14.93
2022-12-12T14:53:58.532Z,15.83
2022-12-12T14:57:07.512Z,14.67
2022-12-12T14:59:39.792Z,14.23
2022-12-12T15:02:18.812Z,16.33
2022-12-12T15:04:48.791Z,15.93
2022-12-12T15:07:30.075Z,14.37
2022-12-12T15:09:56.758Z,14.40
2022-12-12T15:12:32.872Z,14.97
2022-12-12T15:14:59.875Z,13.90
2022-12-12T15:17:38.712Z,14.30
2022-12-12T15:20:20.341Z,15.10
2022-12-12T15:22:49.933Z,14.27
2022-12-12T15:25:20.352Z,13.53
2022-12-12T15:27:55.828Z,14.73
2022-12-12T15:30:37.271Z,15.17
2022-12-12T15:33:06.799Z,13.93
2022-12-12T15:35:33.440Z,15.43
2022-12-12T15:38:02.414Z,14.97
2022-12-12T15:40:30.347Z,14.60
2022-12-12T15:43:11.735Z,16.20
2022-12-12T15:45:41.674Z,16.40
2022-12-12T15:48:15.422Z,15.83
2022-12-12T15:50:41.786Z,16.87
2022-12-12T15:53:27.759Z,16.13
2022-12-12T15:56:00.480Z,15.93
2022-12-12T15:58:32.376Z,16.53
2022-12-12T16:01:20.008Z,17.80
2022-12-12T16:03:54.184Z,20.17
2022-12-12T16:06:25.161Z,21.10
2022-12-12T16:09:02.184Z,20.67
2022-12-12T16:11:32.196Z,19.03
2022-12-12T16:13:59.567Z,19.80
2022-12-12T16:16:46.273Z,17.50
2022-12-12T16:19:33.343Z,17.03
2022-12-12T16:22:16.720Z,17.27
2022-12-12T16:25:11.082Z,18.20
2022-12-12T16:27:37.518Z,18.03
2022-12-12T16:30:05.342Z,17.63
2022-12-12T16:32:31.872Z,17.00
2022-12-12T16:34:58.316Z,18.20
2022-12-12T16:37:24.813Z,16.73
2022-12-12T16:39:51.365Z,18.00
2022-12-12T16:42:20.717Z,18.40
2022-12-12T16:44:47.868Z,19.37
2022-12-12T16:47:19.315Z,24.30
2022-12-12T16:49:47.016Z,22.97
2022-12-12T16:52:16.697Z,24.27
2022-12-12T16:54:48.229Z,27.97
2022-12-12T16:57:19.356Z,24.53
2022-12-12T16:59:45.814Z,23.63
2022-12-12T17:02:24.236Z,20.80
2022-12-12T17:04:51.602Z,20.30
2022-12-12T17:07:18.854Z,20.23
2022-12-12T17:09:45.386Z,21.10
2022-12-12T17:12:13.367Z,20.80
2022-12-12T17:14:40.119Z,19.47
2022-12-12T17:17:06.869Z,18.70
2022-12-12T17:19:33.598Z,22.33
2022-12-12T17:22:00.569Z,22.47
2022-12-12T17:24:28.090Z,21.83
2022-12-12T17:26:54.667Z,20.80
2022-12-12T17:29:21.188Z,20.73
2022-12-12T17:31:48.029Z,20.83
2022-12-12T17:34:14.716Z,19.83
2022-12-12T17:36:41.411Z,20.37
2022-12-12T17:39:07.859Z,20.43
2022-12-12T17:41:34.429Z,21.97
2022-12-12T17:44:00.853Z,23.43
2022-12-12T17:46:28.635Z,21.77
2022-12-12T17:48:58.243Z,21.77
2022-12-12T17:51:24.972Z,22.53
2022-12-12T17:53:52.567Z,20.00
2022-12-12T17:56:24.258Z,20.80
2022-12-12T17:58:50.961Z,21.40
2022-12-12T18:01:27.319Z,19.57
2022-12-12T18:03:54.784Z,21.13
2022-12-12T18:06:22.669Z,20.40
2022-12-12T18:08:50.114Z,21.73
2022-12-12T18:11:20.172Z,21.97
2022-12-12T18:13:50.267Z,23.23
2022-12-12T18:16:18.299Z,24.37
2022-12-12T18:18:44.953Z,25.43
2022-12-12T18:24:05.008Z,25.20
2022-12-12T18:26:31.434Z,26.13
2022-12-12T18:29:00.435Z,24.87
2022-12-12T18:31:29.425Z,25.83
2022-12-12T18:33:56.669Z,24.80
2022-12-12T18:36:28.696Z,26.40
2022-12-12T18:38:56.577Z,27.77
2022-12-12T18:41:23.615Z,25.47
2022-12-12T18:43:50.179Z,26.60
2022-12-12T18:46:19.654Z,25.47
2022-12-12T18:48:47.730Z,30.27
2022-12-12T18:51:18.547Z,28.73
2022-12-12T18:53:46.182Z,27.97
2022-12-12T18:56:17.816Z,26.70
2022-12-12T18:58:47.800Z,27.83
2022-12-12T19:01:18.379Z,27.90
2022-12-12T19:03:49.066Z,27.03
2022-12-12T19:06:20.094Z,32.73
2022-12-12T19:08:46.974Z,42.57
2022-12-12T19:11:14.085Z,40.23
2022-12-12T19:13:40.754Z,35.60
2022-12-12T19:16:10.720Z,33.20
2022-12-12T19:18:38.408Z,31.40
2022-12-12T19:21:12.277Z,29.70
2022-12-12T19:23:39.131Z,29.00
2022-12-12T19:26:14.498Z,28.83
2022-12-12T19:28:41.593Z,27.63
2022-12-12T19:31:11.008Z,31.13
2022-12-12T19:33:38.031Z,32.90
2022-12-12T19:36:17.818Z,34.80
2022-12-12T19:38:46.016Z,34.47
2022-12-12T19:41:14.314Z,33.03
2022-12-12T19:43:42.876Z,31.07
2022-12-12T19:46:13.405Z,29.83
2022-12-12T19:48:40.182Z,30.07
2022-12-12T19:51:16.712Z,29.17
2022-12-12T19:53:45.797Z,27.93
2022-12-12T19:56:14.284Z,31.03
2022-12-12T19:58:41.586Z,30.17
2022-12-12T20:01:18.191Z,30.77
2022-12-12T20:03:52.912Z,30.10
2022-12-12T20:06:20.186Z,27.20
2022-12-12T20:08:48.034Z,29.03
2022-12-12T20:11:17.949Z,31.67
2022-12-12T20:13:49.345Z,32.33
2022-12-12T20:16:19.124Z,31.00
2022-12-12T20:18:47.312Z,30.20
2022-12-12T20:21:43.470Z,28.40
2022-12-12T20:24:07.790Z,29.30
2022-12-12T20:26:34.610Z,29.13
2022-12-12T20:29:02.044Z,29.70
2022-12-12T20:31:32.557Z,29.33
2022-12-12T20:33:59.816Z,27.40
2022-12-12T20:36:28.964Z,28.60
2022-12-12T20:38:57.300Z,26.97
2022-12-12T20:41:26.366Z,26.37
2022-12-12T20:43:54.802Z,25.50
2022-12-12T20:46:24.354Z,24.67
2022-12-12T20:48:51.695Z,24.10
2022-12-12T20:51:52.917Z,23.03
2022-12-12T20:54:07.603Z,24.20
2022-12-12T20:56:34.574Z,25.20
2022-12-12T20:59:04.393Z,24.00
2022-12-12T21:01:36.148Z,22.83
2022-12-12T21:04:05.292Z,24.53
2022-12-12T21:06:35.981Z,22.23
2022-12-12T21:09:06.553Z,23.10
2022-12-12T21:11:33.342Z,23.67
2022-12-12T21:13:59.813Z,24.03
2022-12-12T21:16:29.935Z,26.30
2022-12-12T21:18:59.151Z,25.83
2022-12-12T21:21:25.813Z,26.27
2022-12-12T21:23:53.098Z,25.10
2022-12-12T21:26:28.221Z,23.83
2022-12-12T21:28:55.423Z,26.37
2022-12-12T21:31:25.703Z,23.63
2022-12-12T21:33:52.295Z,23.77
2022-12-12T21:36:21.064Z,23.33
2022-12-12T21:38:48.555Z,24.70
2022-12-12T21:41:18.208Z,23.43
2022-12-12T21:43:45.292Z,24.60
2022-12-12T21:46:15.387Z,23.23
2022-12-12T21:48:42.015Z,25.17
2022-12-12T21:51:13.563Z,25.10
2022-12-12T21:53:40.033Z,24.70
2022-12-12T21:56:12.283Z,24.17
2022-12-12T21:58:41.154Z,23.53
2022-12-12T22:01:15.470Z,23.53
2022-12-12T22:03:42.991Z,23.10
2022-12-12T22:06:11.869Z,23.40
2022-12-12T22:08:38.842Z,21.87
2022-12-12T22:11:07.290Z,20.47
2022-12-12T22:13:39.890Z,21.90
2022-12-12T22:16:10.556Z,20.73
2022-12-12T22:18:37.176Z,20.20
2022-12-12T22:21:05.511Z,20.40
2022-12-12T22:23:32.194Z,20.73
2022-12-12T22:25:58.550Z,21.10
2022-12-12T22:28:24.990Z,19.77
2022-12-12T22:30:51.405Z,19.93
2022-12-12T22:33:18.351Z,19.90
2022-12-12T22:35:44.752Z,19.77
2022-12-12T22:38:11.154Z,20.83
2022-12-12T22:40:37.563Z,19.73
2022-12-12T22:43:03.968Z,20.30
2022-12-12T22:45:30.384Z,21.23
2022-12-12T22:47:56.824Z,20.83
2022-12-12T22:50:23.342Z,20.57
2022-12-12T22:52:49.818Z,20.60
2022-12-12T22:55:16.894Z,19.87
2022-12-12T22:57:46.376Z,20.87
2022-12-12T23:00:13.533Z,20.60
2022-12-12T23:02:39.979Z,21.53
2022-12-12T23:05:08.322Z,21.03
2022-12-12T23:07:34.818Z,21.90
2022-12-12T23:10:02.396Z,19.80
2022-12-12T23:12:31.196Z,20.13
2022-12-12T23:14:57.713Z,20.60
2022-12-12T23:17:24.369Z,19.80
2022-12-12T23:19:50.958Z,21.53
2022-12-12T23:22:18.352Z,21.20
2022-12-12T23:24:44.900Z,20.33
2022-12-12T23:27:11.529Z,20.03
2022-12-12T23:29:38.181Z,21.20
2022-12-12T23:32:04.688Z,21.40
2022-12-12T23:34:31.451Z,21.10
2022-12-12T23:36:58.599Z,20.03
2022-12-12T23:39:26.458Z,19.27
2022-12-12T23:41:53.904Z,19.60
2022-12-12T23:44:22.684Z,18.83
2022-12-12T23:46:50.331Z,18.70
2022-12-12T23:49:25.224Z,17.97
2022-12-12T23:51:56.885Z,18.23
2022-12-12T23:54:27.192Z,19.10
2022-12-12T23:56:54.399Z,19.30
2022-12-12T23:59:21.434Z,18.80
